Time;durP1;ratioP1;P1;durP2;ratioP2;P2;SDS_P1;SDS_P2;PMS_P1;PMS_P2;Temp;Humidity;BMP_temperature;BMP_pressure;BME280_temperature;BME280_humidity;BME280_pressure;Samples;Min_cycle;Max_cycle;Signal;HPM_P1;HPM_P2
2021/12/27 06:02:36;;;;;;;6.50;4.50;;;6.90;99.90;;;;;;4966849;23;20408;-82
2021/12/27 06:05:04;;;;;;;7.78;4.75;;;6.80;99.90;;;;;;4955814;29;20463;-82
2021/12/27 06:07:31;;;;;;;6.65;4.43;;;6.70;99.90;;;;;;4950069;29;20412;-81
2021/12/27 06:09:58;;;;;;;5.90;4.00;;;6.70;99.90;;;;;;4955848;29;20055;-81
2021/12/27 06:12:25;;;;;;;6.30;4.35;;;6.60;99.90;;;;;;4955177;29;20061;-82
2021/12/27 06:14:52;;;;;;;6.65;4.45;;;6.50;99.90;;;;;;4955600;29;20047;-81
2021/12/27 06:17:19;;;;;;;7.63;4.40;;;6.50;99.90;;;;;;4954874;29;20048;-82
2021/12/27 06:19:47;;;;;;;6.88;4.22;;;6.50;99.90;;;;;;4955336;28;20143;-81
2021/12/27 06:22:15;;;;;;;6.55;4.00;;;6.50;99.90;;;;;;4955282;28;20408;-81
2021/12/27 06:24:42;;;;;;;6.13;3.60;;;6.50;99.90;;;;;;4955357;28;20489;-82
2021/12/27 06:27:10;;;;;;;5.50;3.47;;;6.50;99.90;;;;;;4954983;29;20051;-82
2021/12/27 06:29:37;;;;;;;5.35;3.55;;;6.50;99.90;;;;;;4955463;29;20122;-82
2021/12/27 06:32:05;;;;;;;6.70;4.18;;;6.50;99.90;;;;;;4955217;29;20057;-82
2021/12/27 06:34:32;;;;;;;7.30;4.40;;;6.50;99.90;;;;;;4936315;29;20047;-80
2021/12/27 06:37:00;;;;;;;7.28;4.78;;;6.50;99.90;;;;;;4954490;29;20369;-80
2021/12/27 06:39:27;;;;;;;7.28;4.68;;;6.50;99.90;;;;;;4954775;28;20472;-81
2021/12/27 06:41:54;;;;;;;7.85;4.70;;;6.40;99.90;;;;;;4954838;28;20122;-81
2021/12/27 06:44:21;;;;;;;7.05;4.13;;;6.40;99.90;;;;;;4954370;29;20432;-80
2021/12/27 06:46:48;;;;;;;6.50;3.92;;;6.40;99.90;;;;;;4955249;29;20130;-80
2021/12/27 06:49:15;;;;;;;4.65;3.13;;;6.30;99.90;;;;;;4954740;28;20488;-80
2021/12/27 06:51:42;;;;;;;7.70;3.83;;;6.30;99.90;;;;;;4954694;28;20051;-81
2021/12/27 06:54:11;;;;;;;6.50;3.78;;;6.30;99.90;;;;;;4950692;29;20486;-82
2021/12/27 06:56:38;;;;;;;6.40;4.03;;;6.30;99.90;;;;;;4954827;29;20047;-82
2021/12/27 06:59:05;;;;;;;5.22;3.55;;;6.30;99.90;;;;;;4954689;28;20503;-80
2021/12/27 07:01:32;;;;;;;5.53;4.00;;;6.20;99.90;;;;;;4954492;28;20051;-82
2021/12/27 07:03:59;;;;;;;6.65;4.50;;;6.20;99.90;;;;;;4954188;29;20162;-79
2021/12/27 07:06:26;;;;;;;7.05;5.10;;;6.10;99.90;;;;;;4954572;28;20058;-81
2021/12/27 07:08:53;;;;;;;6.93;4.55;;;6.10;99.90;;;;;;4954591;29;20043;-79
2021/12/27 07:11:21;;;;;;;6.03;4.10;;;6.00;99.90;;;;;;4949844;28;20059;-82
2021/12/27 07:13:48;;;;;;;7.28;4.57;;;6.00;99.90;;;;;;4954595;29;20485;-81
2021/12/27 07:16:16;;;;;;;6.50;4.60;;;6.00;99.90;;;;;;4950008;28;20047;-81
2021/12/27 07:18:43;;;;;;;6.47;4.40;;;5.90;99.90;;;;;;4956695;28;20050;-81
2021/12/27 07:21:10;;;;;;;7.28;4.85;;;5.90;99.90;;;;;;4954212;28;20404;-80
2021/12/27 07:23:37;;;;;;;6.53;4.40;;;5.90;99.90;;;;;;4954617;29;20053;-81
2021/12/27 07:26:04;;;;;;;6.68;4.45;;;5.90;99.90;;;;;;4954191;29;20051;-82
2021/12/27 07:28:32;;;;;;;6.00;4.30;;;5.90;99.90;;;;;;4949947;29;20083;-83
2021/12/27 07:30:59;;;;;;;6.10;4.28;;;5.90;99.90;;;;;;4946818;29;20065;-81
2021/12/27 07:33:26;;;;;;;7.32;4.70;;;6.00;99.90;;;;;;4953307;28;20136;-82
2021/12/27 07:35:53;;;;;;;7.40;4.72;;;6.00;99.90;;;;;;4954020;28;20091;-82
2021/12/27 07:38:20;;;;;;;6.35;4.43;;;6.00;99.90;;;;;;4953652;29;20126;-81
2021/12/27 07:40:47;;;;;;;6.68;4.65;;;5.90;99.90;;;;;;4954149;28;20047;-80
2021/12/27 07:43:14;;;;;;;6.68;4.55;;;5.90;99.90;;;;;;4953449;29;20058;-80
2021/12/27 07:45:43;;;;;;;6.82;4.70;;;5.90;99.90;;;;;;4951120;28;20039;-80
2021/12/27 07:48:10;;;;;;;7.32;4.90;;;5.90;99.90;;;;;;4954043;28;20486;-80
2021/12/27 07:50:38;;;;;;;8.90;5.40;;;5.90;99.90;;;;;;4954289;28;20047;-81
2021/12/27 07:53:06;;;;;;;7.22;5.10;;;5.90;99.90;;;;;;4954315;29;20077;-82
2021/12/27 07:55:34;;;;;;;8.38;4.90;;;5.90;99.90;;;;;;4957285;28;20058;-83
2021/12/27 07:58:01;;;;;;;7.65;4.65;;;6.00;99.90;;;;;;4958020;28;20052;-82
2021/12/27 08:00:29;;;;;;;8.15;5.25;;;6.00;99.90;;;;;;4956527;29;20484;-81
2021/12/27 08:02:57;;;;;;;8.57;4.97;;;6.10;99.90;;;;;;4955428;29;20059;-81
2021/12/27 08:05:25;;;;;;;7.55;4.50;;;6.10;99.90;;;;;;4960831;28;20138;-81
2021/12/27 08:07:52;;;;;;;7.95;4.80;;;6.10;99.90;;;;;;4957805;28;20054;-81
2021/12/27 08:10:20;;;;;;;6.72;4.60;;;6.10;99.90;;;;;;4958082;28;20062;-81
2021/12/27 08:12:47;;;;;;;6.55;4.22;;;6.10;99.90;;;;;;4958024;28;20568;-80
2021/12/27 08:15:14;;;;;;;7.53;5.05;;;6.10;99.90;;;;;;4958347;29;20130;-80
2021/12/27 08:17:42;;;;;;;6.35;4.57;;;6.10;99.90;;;;;;4958101;29;20477;-77
2021/12/27 08:20:12;;;;;;;6.80;4.40;;;6.10;99.90;;;;;;4958038;29;20666;-80
2021/12/27 08:22:39;;;;;;;6.38;4.00;;;6.00;99.90;;;;;;4958128;29;20047;-79
2021/12/27 08:25:07;;;;;;;7.57;4.47;;;6.00;99.90;;;;;;4958111;29;20047;-80
2021/12/27 08:27:38;;;;;;;6.57;4.15;;;6.00;99.90;;;;;;4958073;28;20382;-80
2021/12/27 08:30:08;;;;;;;6.55;4.57;;;5.90;99.90;;;;;;4957937;29;20138;-80
2021/12/27 08:32:38;;;;;;;6.30;4.10;;;5.80;99.90;;;;;;4958043;29;20057;-80
2021/12/27 08:35:08;;;;;;;5.75;3.83;;;5.80;99.90;;;;;;4957997;29;20144;-80
2021/12/27 08:37:37;;;;;;;6.55;4.50;;;5.80;99.90;;;;;;4957681;29;20051;-80
2021/12/27 08:40:07;;;;;;;6.13;3.80;;;5.80;99.90;;;;;;4957691;28;20055;-80
2021/12/27 08:42:34;;;;;;;5.88;3.92;;;5.90;99.90;;;;;;4957337;28;20158;-80
2021/12/27 08:45:03;;;;;;;6.13;4.10;;;5.90;99.90;;;;;;4953926;28;20057;-82
2021/12/27 08:47:30;;;;;;;5.78;3.85;;;5.90;99.90;;;;;;4957852;29;20043;-82
2021/12/27 08:49:59;;;;;;;5.95;3.92;;;5.90;99.90;;;;;;4948182;29;20051;-80
2021/12/27 08:52:26;;;;;;;4.97;3.22;;;5.90;99.90;;;;;;4943691;29;20051;-82
2021/12/27 08:54:55;;;;;;;5.53;3.67;;;5.90;99.90;;;;;;4957312;29;20122;-80
2021/12/27 08:57:22;;;;;;;5.50;3.22;;;5.80;99.90;;;;;;4957120;29;20134;-81
2021/12/27 08:59:49;;;;;;;5.00;3.53;;;5.80;99.90;;;;;;4957596;29;20047;-81
2021/12/27 09:02:17;;;;;;;5.13;3.50;;;5.80;99.90;;;;;;4957147;29;20412;-81
2021/12/27 09:04:44;;;;;;;5.55;3.40;;;5.90;99.90;;;;;;4957477;29;20050;-81
2021/12/27 09:07:12;;;;;;;5.45;3.50;;;5.80;99.90;;;;;;4955994;28;20113;-81
2021/12/27 09:09:40;;;;;;;5.63;3.80;;;5.80;99.90;;;;;;4957203;29;20047;-80
2021/12/27 09:12:10;;;;;;;5.85;3.95;;;5.90;99.90;;;;;;4956334;28;20051;-79
2021/12/27 09:14:37;;;;;;;7.43;4.28;;;5.90;99.90;;;;;;4956832;28;20047;-81
2021/12/27 09:17:05;;;;;;;5.47;3.70;;;5.90;99.90;;;;;;4956972;29;20058;-80
2021/12/27 09:19:32;;;;;;;6.30;4.15;;;6.00;99.90;;;;;;4956556;29;20113;-79
2021/12/27 09:22:00;;;;;;;6.35;3.92;;;6.00;99.90;;;;;;4956392;29;20138;-81
2021/12/27 09:24:28;;;;;;;5.85;4.10;;;6.00;99.90;;;;;;4946008;29;20502;-79
2021/12/27 09:26:55;;;;;;;5.55;3.67;;;6.00;99.90;;;;;;4937414;29;20055;-79
2021/12/27 09:29:24;;;;;;;6.00;3.75;;;6.10;99.90;;;;;;4937445;29;20052;-80
2021/12/27 09:31:51;;;;;;;5.50;3.60;;;6.10;99.90;;;;;;4937157;29;20052;-80
2021/12/27 09:34:18;;;;;;;5.32;3.80;;;6.10;99.90;;;;;;4948063;29;20519;-79
2021/12/27 09:36:46;;;;;;;6.85;4.57;;;6.20;99.90;;;;;;4941992;28;20052;-81
2021/12/27 09:39:13;;;;;;;7.00;4.47;;;6.30;99.90;;;;;;4942711;29;20404;-79
2021/12/27 09:41:41;;;;;;;6.30;4.55;;;6.40;99.90;;;;;;4937297;29;20060;-81
2021/12/27 09:44:08;;;;;;;7.18;4.03;;;6.60;99.90;;;;;;4945764;29;20051;-79
2021/12/27 09:46:37;;;;;;;8.73;5.25;;;6.70;99.90;;;;;;4944656;29;20139;-80
2021/12/27 09:49:10;;;;;;;7.68;5.50;;;6.80;99.90;;;;;;4954310;29;20400;-81
2021/12/27 09:51:40;;;;;;;9.27;6.07;;;6.90;99.90;;;;;;4956626;29;20468;-80
2021/12/27 09:54:08;;;;;;;10.20;6.80;;;7.00;99.90;;;;;;4956394;29;20325;-79
2021/12/27 09:56:35;;;;;;;18.77;10.82;;;7.10;99.90;;;;;;4951367;28;20044;-80
2021/12/27 09:59:03;;;;;;;12.98;8.57;;;7.10;99.90;;;;;;4955313;29;20043;-81
2021/12/27 10:01:30;;;;;;;10.80;6.90;;;7.20;99.90;;;;;;4955922;28;20063;-80
2021/12/27 10:04:00;;;;;;;8.23;5.38;;;7.20;99.90;;;;;;4950501;28;20058;-79
2021/12/27 10:06:29;;;;;;;7.88;5.70;;;7.30;99.90;;;;;;4953936;29;20043;-84
2021/12/27 10:09:00;;;;;;;7.95;5.57;;;7.30;99.90;;;;;;4955606;29;20051;-82
2021/12/27 10:11:31;;;;;;;9.25;5.43;;;7.40;99.90;;;;;;4955374;29;20047;-81
2021/12/27 10:14:06;;;;;;;8.85;5.60;;;7.40;99.90;;;;;;4956107;29;20412;-81
2021/12/27 10:16:35;;;;;;;;;;;7.50;99.90;;;;;;4931709;28;20047;-81
2021/12/27 10:19:08;;;;;;;10.38;5.72;;;7.60;99.90;;;;;;4955538;29;19965;-81
2021/12/27 10:21:35;;;;;;;8.15;5.20;;;7.60;99.90;;;;;;4931576;29;20051;-80
2021/12/27 10:24:06;;;;;;;8.38;5.20;;;7.70;99.90;;;;;;4955259;29;20079;-82
2021/12/27 10:26:35;;;;;;;7.10;4.97;;;7.70;99.90;;;;;;4948395;29;20050;-81
2021/12/27 10:29:16;;;;;;;7.25;5.10;;;7.80;99.90;;;;;;4955558;29;20058;-80
2021/12/27 10:31:57;;;;;;;6.80;4.40;;;7.80;99.90;;;;;;4949643;29;20050;-81
2021/12/27 10:34:30;;;;;;;7.50;5.10;;;7.90;99.90;;;;;;4959724;29;20130;-81
2021/12/27 10:37:09;;;;;;;7.93;5.10;;;8.00;99.90;;;;;;4958006;29;20079;-81
2021/12/27 10:39:51;;;;;;;7.63;5.28;;;8.10;99.90;;;;;;4950792;29;20146;-80
2021/12/27 10:42:22;;;;;;;8.45;5.88;;;8.20;99.90;;;;;;4952833;29;20048;-82
2021/12/27 10:44:53;;;;;;;7.78;5.40;;;8.20;99.90;;;;;;4945635;29;20051;-80
2021/12/27 10:47:34;;;;;;;7.43;5.28;;;8.30;99.90;;;;;;4957141;29;20058;-80
2021/12/27 10:50:08;;;;;;;9.10;5.40;;;8.40;99.90;;;;;;4955866;29;20110;-80
2021/12/27 10:52:59;;;;;;;8.88;5.32;;;8.40;99.90;;;;;;4955400;29;20239;-80
2021/12/27 10:55:37;;;;;;;7.75;4.82;;;8.50;99.90;;;;;;4950613;29;20047;-81
2021/12/27 10:58:16;;;;;;;7.32;4.82;;;8.50;99.90;;;;;;4954075;28;20409;-81
2021/12/27 11:00:46;;;;;;;7.63;4.90;;;8.60;99.90;;;;;;4949191;28;20047;-81
2021/12/27 11:03:33;;;;;;;7.60;4.70;;;8.60;99.90;;;;;;4950513;29;20047;-82
2021/12/27 11:06:04;;;;;;;6.10;3.70;;;8.70;99.90;;;;;;4951626;29;20058;-81
2021/12/27 11:08:32;;;;;;;7.38;4.15;;;8.80;99.90;;;;;;4954750;29;20043;-86
2021/12/27 11:11:00;;;;;;;6.55;3.97;;;8.90;99.90;;;;;;4936413;28;20051;-79
2021/12/27 11:13:29;;;;;;;7.28;4.40;;;9.00;99.90;;;;;;4946553;29;20130;-79
2021/12/27 11:15:58;;;;;;;7.88;4.43;;;9.10;99.90;;;;;;4946628;29;20047;-81
2021/12/27 11:18:26;;;;;;;7.57;4.93;;;9.20;99.90;;;;;;4948019;28;20053;-80
2021/12/27 11:20:56;;;;;;;6.95;4.60;;;9.30;99.90;;;;;;4930381;29;20509;-80
2021/12/27 11:23:27;;;;;;;5.75;3.75;;;9.40;99.90;;;;;;4949020;29;20047;-79
2021/12/27 11:26:03;;;;;;;6.32;4.13;;;9.40;99.90;;;;;;4947499;29;20043;-81
2021/12/27 11:28:33;;;;;;;6.32;3.90;;;9.50;99.90;;;;;;4946547;28;20047;-80
2021/12/27 11:31:07;;;;;;;5.78;3.92;;;9.60;99.90;;;;;;4947581;28;20053;-81
2021/12/27 11:33:54;;;;;;;6.85;4.05;;;9.70;99.90;;;;;;4944199;29;20043;-81
2021/12/27 11:36:23;;;;;;;5.68;3.45;;;9.80;99.90;;;;;;4946490;29;20102;-79
2021/12/27 11:38:51;;;;;;;5.85;3.25;;;9.90;99.90;;;;;;4948778;29;20551;-83
2021/12/27 11:41:35;;;;;;;5.88;3.17;;;10.00;99.90;;;;;;4950733;28;20047;-80
2021/12/27 11:44:05;;;;;;;6.25;3.40;;;10.10;99.90;;;;;;4949406;29;20484;-82
2021/12/27 11:46:57;;;;;;;5.60;3.08;;;10.20;99.90;;;;;;4952237;29;20150;-83
2021/12/27 11:49:45;;;;;;;5.13;2.78;;;10.20;99.90;;;;;;4953376;29;20051;-82
2021/12/27 11:52:23;;;;;;;6.07;3.20;;;10.30;99.90;;;;;;4951208;29;20039;-79
2021/12/27 11:54:55;;;;;;;7.32;3.30;;;10.30;99.90;;;;;;4946427;29;20047;-81
2021/12/27 11:57:52;;;;;;;8.18;4.10;;;10.40;99.90;;;;;;4947362;28;20049;-82
2021/12/27 12:00:40;;;;;;;7.82;4.35;;;10.40;99.90;;;;;;4917479;29;20479;-84
2021/12/27 12:03:18;;;;;;;6.10;3.22;;;10.50;99.90;;;;;;4948377;29;21088;-82
2021/12/27 12:05:49;;;;;;;4.47;2.50;;;10.50;99.90;;;;;;4951420;29;20386;-78
2021/12/27 12:08:19;;;;;;;5.45;2.45;;;10.50;99.90;;;;;;4950567;29;20048;-80
2021/12/27 12:10:59;;;;;;;4.88;2.60;;;10.50;99.90;;;;;;4951673;29;20043;-82
2021/12/27 12:13:41;;;;;;;3.75;2.20;;;10.50;99.90;;;;;;4953985;29;20047;-84
2021/12/27 12:16:10;;;;;;;4.03;2.20;;;10.50;99.90;;;;;;4952791;29;20485;-84
2021/12/27 12:18:41;;;;;;;5.18;2.30;;;10.50;99.90;;;;;;4953443;29;20055;-82
2021/12/27 12:21:37;;;;;;;4.97;2.40;;;10.50;99.90;;;;;;4952301;29;20143;-84
2021/12/27 12:24:07;;;;;;;4.05;2.13;;;10.50;99.90;;;;;;4949882;29;20043;-82
2021/12/27 12:26:52;;;;;;;4.20;2.45;;;10.60;99.90;;;;;;4953607;29;20057;-84
2021/12/27 12:29:19;;;;;;;4.75;2.50;;;10.60;99.90;;;;;;4950255;29;20382;-82
2021/12/27 12:31:54;;;;;;;5.03;2.17;;;10.70;99.90;;;;;;4949464;28;20043;-81
2021/12/27 12:34:21;;;;;;;4.88;2.40;;;10.70;99.90;;;;;;4951215;29;20067;-84
2021/12/27 12:36:52;;;;;;;5.00;2.45;;;10.80;99.90;;;;;;4949323;29;20501;-82
2021/12/27 12:39:22;;;;;;;3.88;1.95;;;10.90;99.90;;;;;;4945139;29;20049;-82
2021/12/27 12:41:52;;;;;;;3.72;2.13;;;11.00;99.90;;;;;;4946384;28;20477;-83
2021/12/27 12:44:19;;;;;;;3.78;1.92;;;11.10;99.90;;;;;;4953791;29;20154;-83
2021/12/27 12:46:50;;;;;;;4.03;2.13;;;11.20;99.90;;;;;;4955719;29;20126;-83
2021/12/27 12:49:20;;;;;;;4.07;2.00;;;11.40;99.90;;;;;;4956716;29;20579;-79
2021/12/27 12:51:50;;;;;;;3.90;2.10;;;11.60;99.90;;;;;;4953609;29;20074;-81
2021/12/27 12:54:30;;;;;;;3.40;2.00;;;11.80;99.90;;;;;;4952627;29;20058;-81
2021/12/27 12:57:03;;;;;;;3.60;1.88;;;11.90;99.90;;;;;;4953717;29;20449;-82
2021/12/27 12:59:33;;;;;;;3.33;1.83;;;12.00;99.90;;;;;;4953299;29;20047;-82
2021/12/27 13:02:06;;;;;;;3.83;1.95;;;11.90;99.30;;;;;;4952646;28;20058;-82
2021/12/27 13:04:48;;;;;;;4.53;2.00;;;11.90;99.40;;;;;;4952946;29;20043;-82
2021/12/27 13:07:17;;;;;;;3.85;1.80;;;11.80;99.40;;;;;;4947163;29;20119;-83
2021/12/27 13:09:48;;;;;;;4.57;2.70;;;11.60;99.20;;;;;;4953342;29;20486;-82
2021/12/27 13:12:23;;;;;;;4.32;2.22;;;11.50;99.10;;;;;;4950164;29;20051;-81
2021/12/27 13:14:53;;;;;;;4.45;2.60;;;11.40;99.50;;;;;;4948958;28;20039;-85
2021/12/27 13:17:24;;;;;;;4.22;2.38;;;11.20;99.90;;;;;;4953234;29;20055;-84
2021/12/27 13:20:06;;;;;;;4.38;2.13;;;11.10;99.90;;;;;;4936571;29;20393;-82
2021/12/27 13:22:47;;;;;;;3.60;2.00;;;10.90;99.90;;;;;;4951581;29;20153;-82
2021/12/27 13:25:29;;;;;;;3.95;2.20;;;10.80;99.90;;;;;;4953243;29;20039;-82
2021/12/27 13:28:07;;;;;;;4.88;2.33;;;10.70;99.90;;;;;;4946048;29;20055;-82
2021/12/27 13:30:49;;;;;;;4.80;2.50;;;10.70;99.90;;;;;;4953173;29;20556;-85
2021/12/27 13:33:17;;;;;;;4.47;2.00;;;10.60;99.90;;;;;;4951722;29;20134;-82
2021/12/27 13:35:45;;;;;;;5.32;2.25;;;10.50;99.90;;;;;;4953274;29;20065;-84
2021/12/27 13:38:17;;;;;;;3.75;2.00;;;10.50;99.90;;;;;;4952141;28;20051;-83
2021/12/27 13:40:46;;;;;;;3.25;1.65;;;10.50;99.90;;;;;;4951751;29;20058;-82
2021/12/27 13:43:15;;;;;;;3.50;1.90;;;10.50;99.90;;;;;;4951844;29;20142;-82
2021/12/27 13:45:44;;;;;;;3.47;1.98;;;10.50;99.90;;;;;;4947646;28;20111;-83
2021/12/27 13:48:12;;;;;;;5.15;2.40;;;10.50;99.90;;;;;;4947247;29;20413;-82
2021/12/27 13:50:42;;;;;;;4.15;2.00;;;10.50;99.90;;;;;;4951838;29;20058;-82
2021/12/27 13:53:15;;;;;;;4.38;2.20;;;10.50;99.90;;;;;;4949807;28;20527;-80
2021/12/27 13:55:43;;;;;;;3.95;1.80;;;10.50;99.90;;;;;;4951342;29;20134;-80
2021/12/27 13:58:21;;;;;;;4.68;1.95;;;10.50;99.90;;;;;;4951689;29;20126;-81
2021/12/27 14:00:53;;;;;;;4.20;2.00;;;10.50;99.90;;;;;;4951727;28;20138;-80
2021/12/27 14:03:31;;;;;;;4.28;1.90;;;10.50;99.90;;;;;;4951313;29;20058;-82
2021/12/27 14:06:01;;;;;;;4.00;2.05;;;10.40;99.90;;;;;;4951879;29;20475;-82
2021/12/27 14:08:30;;;;;;;3.85;2.03;;;10.40;99.90;;;;;;4950949;29;20631;-80
2021/12/27 14:11:09;;;;;;;3.45;1.70;;;10.40;99.90;;;;;;4952110;29;20051;-82
2021/12/27 14:14:01;;;;;;;3.83;1.90;;;10.40;99.90;;;;;;4952318;29;20047;-80
2021/12/27 14:16:34;;;;;;;3.72;1.70;;;10.40;99.90;;;;;;4945470;29;20051;-79
2021/12/27 14:19:11;;;;;;;3.30;1.58;;;10.40;99.90;;;;;;4951497;29;20138;-80
2021/12/27 14:22:15;;;;;;;3.50;1.88;;;10.40;99.90;;;;;;4944589;29;20058;-80
2021/12/27 14:24:48;;;;;;;;;;;10.30;99.90;;;;;;4951262;29;20807;-79
2021/12/27 14:27:31;;;;;;;3.60;1.90;;;10.30;99.90;;;;;;4951689;29;19933;-79
2021/12/27 14:30:21;;;;;;;4.90;2.53;;;10.30;99.90;;;;;;4951400;29;20058;-83
2021/12/27 14:33:03;;;;;;;4.25;2.72;;;10.30;99.90;;;;;;4946356;29;20077;-80
2021/12/27 14:35:33;;;;;;;6.95;4.35;;;10.30;99.90;;;;;;4949996;29;20044;-81
2021/12/27 14:38:03;;;;;;;6.85;3.83;;;10.20;99.90;;;;;;4949025;28;20130;-81
2021/12/27 14:40:33;;;;;;;5.68;3.00;;;10.10;99.90;;;;;;4943142;29;20135;-81
2021/12/27 14:43:01;;;;;;;5.43;2.58;;;10.00;99.90;;;;;;4947002;29;20055;-81
2021/12/27 14:45:30;;;;;;;4.82;2.72;;;10.00;99.90;;;;;;4951091;28;20050;-82
2021/12/27 14:48:00;;;;;;;7.82;2.60;;;9.90;99.90;;;;;;4950717;29;20067;-81
2021/12/27 14:50:29;;;;;;;3.88;2.15;;;9.90;99.90;;;;;;4950579;29;20039;-82
2021/12/27 14:52:57;;;;;;;4.60;2.50;;;9.90;99.90;;;;;;4951291;29;20055;-81
2021/12/27 14:55:24;;;;;;;5.32;2.85;;;9.90;99.90;;;;;;4943974;29;20043;-80
2021/12/27 14:57:52;;;;;;;4.38;2.70;;;9.90;99.90;;;;;;4949143;29;20047;-81
2021/12/27 15:00:22;;;;;;;5.30;2.95;;;9.90;99.90;;;;;;4950116;28;20057;-81
2021/12/27 15:02:51;;;;;;;5.68;3.05;;;9.90;99.90;;;;;;4950122;28;20066;-81
2021/12/27 15:05:18;;;;;;;5.20;2.88;;;9.90;99.90;;;;;;4949906;29;20106;-80
2021/12/27 15:07:45;;;;;;;5.53;3.28;;;9.80;99.90;;;;;;4950863;29;20043;-82
2021/12/27 15:10:13;;;;;;;5.82;3.03;;;9.80;99.90;;;;;;4950536;29;21661;-80
2021/12/27 15:12:41;;;;;;;5.07;2.85;;;9.80;99.90;;;;;;4947869;28;20049;-80
2021/12/27 15:15:18;;;;;;;4.90;2.75;;;9.80;99.90;;;;;;4948092;28;20043;-81
2021/12/27 15:17:46;;;;;;;5.30;3.00;;;9.80;99.90;;;;;;4951223;29;20055;-80
2021/12/27 15:20:14;;;;;;;6.22;3.08;;;9.80;99.90;;;;;;4950346;29;20467;-79
2021/12/27 15:22:41;;;;;;;5.53;3.17;;;9.80;99.90;;;;;;4949228;29;20487;-83
2021/12/27 15:25:09;;;;;;;6.00;3.20;;;9.80;99.90;;;;;;4949901;28;20467;-80
2021/12/27 15:27:37;;;;;;;6.05;3.22;;;9.80;99.90;;;;;;4950802;29;20057;-81
2021/12/27 15:30:07;;;;;;;11.10;8.00;;;9.80;99.90;;;;;;4951501;28;20106;-79
2021/12/27 15:32:37;;;;;;;15.13;10.23;;;9.80;99.90;;;;;;4949022;29;20465;-82
2021/12/27 15:35:06;;;;;;;6.40;4.47;;;9.70;99.90;;;;;;4946320;29;20039;-80
2021/12/27 15:37:34;;;;;;;6.40;4.03;;;9.70;99.90;;;;;;4947769;29;20150;-79
2021/12/27 15:40:01;;;;;;;9.10;4.53;;;9.70;99.90;;;;;;4949671;29;20075;-82
2021/12/27 15:42:28;;;;;;;9.38;5.93;;;9.60;99.90;;;;;;4949841;28;20082;-78
2021/12/27 15:44:56;;;;;;;6.20;4.22;;;9.60;99.90;;;;;;4949951;29;20047;-79
2021/12/27 15:47:23;;;;;;;5.80;3.65;;;9.50;99.90;;;;;;4949190;28;20836;-78
2021/12/27 15:49:50;;;;;;;5.63;3.75;;;9.50;99.90;;;;;;4949771;29;20051;-80
2021/12/27 15:52:17;;;;;;;6.05;4.15;;;9.40;99.90;;;;;;4949755;29;20050;-80
2021/12/27 15:54:45;;;;;;;7.15;5.07;;;9.40;99.90;;;;;;4950574;29;20050;-78
2021/12/27 15:57:13;;;;;;;8.77;5.55;;;9.40;99.90;;;;;;4949991;29;20078;-76
2021/12/27 15:59:40;;;;;;;7.80;4.45;;;9.40;99.90;;;;;;4947852;29;20062;-81
2021/12/27 16:02:07;;;;;;;6.57;4.30;;;9.40;99.90;;;;;;4945418;28;20051;-80
2021/12/27 16:04:34;;;;;;;7.57;5.00;;;9.40;99.90;;;;;;4949652;29;20054;-79
2021/12/27 16:07:02;;;;;;;7.43;4.57;;;9.40;99.90;;;;;;4949920;29;20138;-79
2021/12/27 16:09:30;;;;;;;6.95;4.20;;;9.40;99.90;;;;;;4949969;29;20134;-79
2021/12/27 16:11:59;;;;;;;6.82;4.07;;;9.30;99.90;;;;;;4949787;28;20047;-80
2021/12/27 16:14:28;;;;;;;6.93;4.50;;;9.30;99.90;;;;;;4949567;28;20039;-79
2021/12/27 16:16:56;;;;;;;7.82;5.00;;;9.30;99.90;;;;;;4954143;28;20059;-79
2021/12/27 16:19:23;;;;;;;7.22;4.68;;;9.30;99.90;;;;;;4952878;28;20106;-79
2021/12/27 16:21:51;;;;;;;6.70;4.60;;;9.30;99.90;;;;;;4953467;29;20125;-80
2021/12/27 16:24:18;;;;;;;8.35;4.65;;;9.20;99.90;;;;;;4952647;29;20137;-79
2021/12/27 16:26:45;;;;;;;12.95;7.10;;;9.20;99.90;;;;;;4954005;29;20170;-79
2021/12/27 16:29:13;;;;;;;14.38;7.35;;;9.20;99.90;;;;;;4953458;28;20047;-79
2021/12/27 16:31:41;;;;;;;19.80;10.10;;;9.20;99.90;;;;;;4953109;28;20053;-81
2021/12/27 16:34:10;;;;;;;16.35;8.90;;;9.10;99.90;;;;;;4953230;29;20051;-79
2021/12/27 16:36:37;;;;;;;11.20;6.15;;;9.20;99.90;;;;;;4953864;28;20046;-80
2021/12/27 16:39:04;;;;;;;9.70;5.00;;;9.20;99.90;;;;;;4953379;29;20052;-79
2021/12/27 16:41:31;;;;;;;5.97;3.28;;;9.20;99.90;;;;;;4952844;29;20047;-78
2021/12/27 16:43:59;;;;;;;4.68;2.40;;;9.20;99.90;;;;;;4952249;28;20056;-81
2021/12/27 16:46:28;;;;;;;4.05;2.00;;;9.20;99.90;;;;;;4953065;29;20055;-80
2021/12/27 16:48:55;;;;;;;4.03;2.03;;;9.20;99.90;;;;;;4953469;28;20379;-79
2021/12/27 16:51:22;;;;;;;3.78;2.05;;;9.20;99.90;;;;;;4953386;29;20483;-79
2021/12/27 16:53:49;;;;;;;3.97;2.05;;;9.20;99.90;;;;;;4952967;28;20061;-81
2021/12/27 16:56:16;;;;;;;3.80;2.00;;;9.30;99.90;;;;;;4949049;29;20039;-80
2021/12/27 16:58:43;;;;;;;3.95;1.85;;;9.30;99.90;;;;;;4952156;29;20049;-80
2021/12/27 17:01:10;;;;;;;3.65;1.77;;;9.30;99.90;;;;;;4954087;28;20137;-79
2021/12/27 17:03:39;;;;;;;4.32;2.08;;;9.30;99.90;;;;;;4934766;29;20062;-81
2021/12/27 17:06:07;;;;;;;3.60;1.83;;;9.30;99.90;;;;;;4940588;29;20523;-78
2021/12/27 17:08:34;;;;;;;4.82;2.10;;;9.30;99.90;;;;;;4953669;29;20134;-80
2021/12/27 17:11:01;;;;;;;3.72;1.90;;;9.40;99.90;;;;;;4953061;28;20479;-81
2021/12/27 17:13:29;;;;;;;4.03;1.90;;;9.30;99.90;;;;;;4952751;29;20079;-78
2021/12/27 17:15:57;;;;;;;4.00;1.80;;;9.40;99.90;;;;;;4952290;29;20051;-81
2021/12/27 17:18:24;;;;;;;3.63;1.90;;;9.40;99.90;;;;;;4948185;28;20079;-79
2021/12/27 17:20:52;;;;;;;4.70;2.30;;;9.40;99.90;;;;;;4953288;28;20047;-80
2021/12/27 17:23:21;;;;;;;4.05;1.90;;;9.40;99.90;;;;;;4952179;29;20065;-82
2021/12/27 17:25:48;;;;;;;3.90;2.10;;;9.40;99.90;;;;;;4947981;28;20046;-81
2021/12/27 17:28:15;;;;;;;3.83;1.80;;;9.40;99.90;;;;;;4951733;28;20047;-81
2021/12/27 17:30:45;;;;;;;4.72;2.20;;;9.40;99.90;;;;;;4950659;29;20057;-81
2021/12/27 17:33:12;;;;;;;3.58;1.90;;;9.40;99.90;;;;;;4952654;29;20600;-81
2021/12/27 17:35:40;;;;;;;4.05;2.13;;;9.40;99.90;;;;;;4952291;28;20473;-82
2021/12/27 17:38:09;;;;;;;4.03;2.13;;;9.40;99.90;;;;;;4952194;29;20489;-81
2021/12/27 17:40:37;;;;;;;3.38;2.00;;;9.40;99.90;;;;;;4952102;28;20047;-79
2021/12/27 17:43:04;;;;;;;3.70;2.10;;;9.40;99.90;;;;;;4946661;29;20486;-78
2021/12/27 17:45:32;;;;;;;3.88;2.03;;;9.40;99.90;;;;;;4947420;29;20528;-79
2021/12/27 17:47:59;;;;;;;4.38;2.20;;;9.50;99.90;;;;;;4952694;29;20414;-80
2021/12/27 17:50:30;;;;;;;4.30;2.28;;;9.40;99.90;;;;;;4951684;29;20446;-79
2021/12/27 17:52:58;;;;;;;4.78;2.40;;;9.50;99.90;;;;;;4952874;29;20048;-79
2021/12/27 17:55:27;;;;;;;4.43;2.30;;;9.40;99.90;;;;;;4952756;29;20120;-81
2021/12/27 17:57:54;;;;;;;5.65;2.50;;;9.40;99.90;;;;;;4949737;28;20058;-80
2021/12/27 18:00:24;;;;;;;4.35;2.30;;;9.40;99.90;;;;;;4951993;29;20122;-80
2021/12/27 18:02:52;;;;;;;5.78;2.88;;;9.50;99.90;;;;;;4946101;28;20058;-79
2021/12/27 18:05:19;;;;;;;4.43;2.42;;;9.40;99.90;;;;;;4950022;29;20074;-79
2021/12/27 18:07:47;;;;;;;4.63;2.47;;;9.40;99.90;;;;;;4949239;29;20040;-80
2021/12/27 18:10:16;;;;;;;4.65;2.67;;;9.40;99.90;;;;;;4945672;28;20134;-80
2021/12/27 18:12:44;;;;;;;4.93;2.40;;;9.40;99.90;;;;;;4949285;29;20054;-79
2021/12/27 18:15:13;;;;;;;6.30;3.05;;;9.30;99.90;;;;;;4949999;29;20063;-79
2021/12/27 18:17:42;;;;;;;5.68;3.28;;;9.30;99.90;;;;;;4948142;29;20055;-79
2021/12/27 18:20:15;;;;;;;4.88;2.72;;;9.30;99.90;;;;;;4948734;29;20578;-78
2021/12/27 18:22:43;;;;;;;11.75;5.60;;;9.30;99.90;;;;;;4947697;28;20047;-80
2021/12/27 18:25:11;;;;;;;25.77;10.68;;;9.30;99.90;;;;;;4949072;29;20062;-80
2021/12/27 18:27:38;;;;;;;16.98;7.90;;;9.30;99.90;;;;;;4951479;28;20137;-78
2021/12/27 18:30:10;;;;;;;7.50;4.03;;;9.30;99.90;;;;;;4950374;28;20048;-78
2021/12/27 18:32:37;;;;;;;4.70;2.67;;;9.30;99.90;;;;;;4952855;29;20047;-79
2021/12/27 18:35:06;;;;;;;3.92;2.25;;;9.20;99.90;;;;;;4950981;29;20130;-79
2021/12/27 18:37:33;;;;;;;3.83;2.17;;;9.20;99.90;;;;;;4942584;28;20065;-81
2021/12/27 18:40:01;;;;;;;3.65;1.90;;;9.20;99.90;;;;;;4948331;29;20059;-80
2021/12/27 18:42:28;;;;;;;3.15;1.70;;;9.20;99.90;;;;;;4950929;29;20102;-80
2021/12/27 18:44:55;;;;;;;3.60;1.70;;;9.10;99.90;;;;;;4951591;28;20054;-82
2021/12/27 18:47:24;;;;;;;3.30;1.55;;;9.10;99.90;;;;;;4952099;28;20047;-83
2021/12/27 18:49:51;;;;;;;3.60;1.70;;;9.10;99.90;;;;;;4951124;29;20055;-80
2021/12/27 18:52:18;;;;;;;3.40;1.50;;;9.00;99.90;;;;;;4950801;29;20515;-79
2021/12/27 18:54:46;;;;;;;2.60;1.10;;;9.00;99.90;;;;;;4950641;29;20051;-81
2021/12/27 18:57:13;;;;;;;3.15;1.20;;;9.00;99.90;;;;;;4950348;28;20055;-81
2021/12/27 18:59:41;;;;;;;2.05;0.90;;;9.00;99.90;;;;;;4951361;29;20066;-79
2021/12/27 19:02:09;;;;;;;2.47;0.90;;;9.00;99.90;;;;;;4950410;28;20059;-80
2021/12/27 19:04:37;;;;;;;4.50;1.20;;;9.00;99.90;;;;;;4950743;28;20420;-80
2021/12/27 19:07:06;;;;;;;1.98;0.80;;;9.00;99.90;;;;;;4950587;29;20138;-81
2021/12/27 19:09:34;;;;;;;2.25;0.80;;;8.90;99.90;;;;;;4944216;29;20493;-81
2021/12/27 19:12:01;;;;;;;3.90;0.90;;;8.90;99.90;;;;;;4950493;29;20067;-80